createdAt,value
2022-10-12T00:01:10.658Z,61.00
2022-10-12T00:03:38.866Z,59.78
2022-10-12T00:06:15.170Z,59.79
2022-10-12T00:08:45.171Z,63.24
2022-10-12T00:11:17.243Z,64.92
2022-10-12T00:13:45.175Z,62.57
2022-10-12T00:16:14.960Z,60.85
2022-10-12T00:18:43.218Z,60.16
2022-10-12T00:21:16.712Z,58.19
2022-10-12T00:23:45.661Z,61.48
2022-10-12T00:26:23.380Z,64.70
2022-10-12T00:28:59.882Z,62.87
2022-10-12T00:31:29.827Z,61.79
2022-10-12T00:34:01.613Z,59.61
2022-10-12T00:36:32.693Z,57.98
2022-10-12T00:39:01.456Z,62.40
2022-10-12T00:41:33.302Z,65.57
2022-10-12T00:44:01.406Z,63.64
2022-10-12T00:46:35.234Z,62.69
2022-10-12T00:49:20.885Z,61.09
2022-10-12T00:51:53.721Z,59.58
2022-10-12T00:54:27.319Z,55.85
2022-10-12T00:56:56.898Z,55.36
2022-10-12T00:59:32.611Z,59.11
2022-10-12T01:02:00.565Z,64.98
2022-10-12T01:04:31.716Z,64.28
2022-10-12T01:07:00.288Z,61.79
2022-10-12T01:09:29.734Z,60.03
2022-10-12T01:11:58.673Z,57.76
2022-10-12T01:14:26.660Z,57.49
2022-10-12T01:17:00.204Z,64.87
2022-10-12T01:20:09.030Z,64.43
2022-10-12T01:23:04.501Z,61.73
2022-10-12T01:25:53.205Z,60.83
2022-10-12T01:28:51.909Z,58.88
2022-10-12T01:31:49.840Z,62.05
2022-10-12T01:34:42.615Z,65.15
2022-10-12T01:37:38.844Z,62.34
2022-10-12T01:40:16.502Z,60.24
2022-10-12T01:42:45.087Z,59.44
2022-10-12T01:45:17.229Z,62.37
2022-10-12T01:47:55.014Z,65.48
2022-10-12T01:50:32.104Z,63.21
2022-10-12T01:53:23.045Z,61.54
2022-10-12T01:56:39.067Z,60.48
2022-10-12T01:59:12.845Z,58.41
2022-10-12T02:01:48.918Z,61.58
2022-10-12T02:04:44.478Z,65.97
2022-10-12T02:07:26.785Z,63.85
2022-10-12T02:09:59.233Z,62.26
2022-10-12T02:12:30.792Z,60.83
2022-10-12T02:15:03.741Z,59.80
2022-10-12T02:17:33.910Z,58.53
2022-10-12T02:20:04.016Z,61.05
2022-10-12T02:22:37.381Z,64.69
2022-10-12T02:25:11.139Z,64.97
2022-10-12T02:27:43.262Z,62.14
2022-10-12T02:30:12.127Z,60.90
2022-10-12T02:33:03.725Z,57.88
2022-10-12T02:35:41.925Z,56.32
2022-10-12T02:38:20.689Z,58.58
2022-10-12T02:40:57.773Z,64.71
2022-10-12T02:43:35.115Z,66.71
2022-10-12T02:46:05.869Z,63.27
2022-10-12T02:48:35.494Z,59.99
2022-10-12T02:51:04.024Z,56.89
2022-10-12T02:53:32.015Z,56.36
2022-10-12T02:56:03.753Z,59.30
2022-10-12T02:58:32.100Z,64.79
2022-10-12T03:01:00.059Z,66.74
2022-10-12T03:03:28.212Z,63.47
2022-10-12T03:05:56.512Z,61.40
2022-10-12T03:08:24.378Z,60.14
2022-10-12T03:10:52.243Z,56.34
2022-10-12T03:13:20.093Z,55.90
2022-10-12T03:15:47.920Z,58.76
2022-10-12T03:18:15.790Z,64.24
2022-10-12T03:20:48.195Z,66.52
2022-10-12T03:23:16.041Z,63.25
2022-10-12T03:25:43.885Z,60.04
2022-10-12T03:28:12.139Z,56.09
2022-10-12T03:30:40.292Z,55.42
2022-10-12T03:33:08.174Z,57.96
2022-10-12T03:35:36.043Z,63.83
2022-10-12T03:38:04.306Z,66.15
2022-10-12T03:40:32.160Z,63.46
2022-10-12T03:43:00.062Z,61.49
2022-10-12T03:45:27.910Z,58.15
2022-10-12T03:47:56.009Z,56.45
2022-10-12T03:50:23.840Z,58.46
2022-10-12T03:52:51.656Z,64.13
2022-10-12T03:55:19.808Z,66.20
2022-10-12T03:57:47.609Z,61.95
2022-10-12T04:00:15.776Z,59.62
2022-10-12T04:02:43.682Z,57.02
2022-10-12T04:05:11.636Z,56.94
2022-10-12T04:07:39.877Z,61.13
2022-10-12T04:10:08.238Z,65.99
2022-10-12T04:12:36.119Z,65.24
2022-10-12T04:15:04.629Z,62.01
2022-10-12T04:17:32.572Z,58.58
2022-10-12T04:20:00.375Z,59.38
2022-10-12T04:22:28.242Z,64.27
2022-10-12T04:24:56.042Z,64.14
2022-10-12T04:27:23.859Z,62.65
2022-10-12T04:29:51.745Z,61.52
2022-10-12T04:32:19.561Z,60.42
2022-10-12T04:34:47.382Z,58.27
2022-10-12T04:37:15.270Z,61.31
2022-10-12T04:39:43.143Z,65.07
2022-10-12T04:42:10.983Z,64.49
2022-10-12T04:44:38.780Z,61.88
2022-10-12T04:47:07.146Z,60.66
2022-10-12T04:49:35.029Z,59.19
2022-10-12T04:52:02.998Z,60.55
2022-10-12T04:54:32.876Z,65.40
2022-10-12T04:57:00.943Z,65.89
2022-10-12T04:59:28.860Z,63.28
2022-10-12T05:01:56.747Z,60.37
2022-10-12T05:04:24.746Z,56.47
2022-10-12T05:06:52.650Z,57.69
2022-10-12T05:09:20.522Z,59.27
2022-10-12T05:11:48.457Z,64.60
2022-10-12T05:14:16.264Z,65.88
2022-10-12T05:16:44.117Z,61.75
2022-10-12T05:19:11.946Z,57.58
2022-10-12T05:21:40.485Z,56.48
2022-10-12T05:24:08.451Z,59.20
2022-10-12T05:26:36.561Z,64.39
2022-10-12T05:29:04.451Z,66.28
2022-10-12T05:31:32.256Z,63.24
2022-10-12T05:34:00.241Z,61.39
2022-10-12T05:36:28.189Z,57.73
2022-10-12T05:38:56.065Z,56.90
2022-10-12T05:41:23.937Z,58.28
2022-10-12T05:43:53.325Z,63.53
2022-10-12T05:46:21.700Z,65.86
2022-10-12T05:48:49.522Z,63.25
2022-10-12T05:51:17.349Z,59.46
2022-10-12T05:53:45.359Z,56.40
2022-10-12T05:56:13.242Z,57.39
2022-10-12T05:58:41.193Z,59.00
2022-10-12T06:01:14.177Z,64.87
2022-10-12T06:03:42.336Z,67.40
2022-10-12T06:06:10.303Z,63.44
2022-10-12T06:08:38.174Z,60.63
2022-10-12T06:11:06.165Z,57.37
2022-10-12T06:13:34.044Z,57.72
2022-10-12T06:16:01.919Z,59.75
2022-10-12T06:18:29.891Z,65.49
2022-10-12T06:21:58.924Z,65.60
2022-10-12T06:23:45.589Z,61.06
2022-10-12T06:26:16.552Z,56.26
2022-10-12T06:28:44.478Z,56.70
2022-10-12T06:31:12.709Z,58.99
2022-10-12T06:33:40.728Z,64.09
2022-10-12T06:36:08.575Z,64.71
2022-10-12T06:38:36.522Z,61.26
2022-10-12T06:41:04.418Z,57.04
2022-10-12T06:43:32.278Z,56.75
2022-10-12T06:46:27.754Z,58.74
2022-10-12T06:48:55.651Z,59.77
2022-10-12T06:51:23.936Z,65.88
2022-10-12T06:53:55.422Z,65.23
2022-10-12T06:56:23.513Z,60.67
2022-10-12T06:58:55.938Z,55.96
2022-10-12T07:01:24.025Z,55.90
2022-10-12T07:04:00.724Z,58.17
2022-10-12T07:06:28.894Z,60.36
2022-10-12T07:09:01.257Z,65.91
2022-10-12T07:11:29.152Z,65.97
2022-10-12T07:13:58.143Z,60.12
2022-10-12T07:16:26.033Z,55.72
2022-10-12T07:18:54.051Z,56.00
2022-10-12T07:21:21.959Z,58.46
2022-10-12T07:23:49.789Z,64.01
2022-10-12T07:26:17.931Z,63.06
2022-10-12T07:28:45.898Z,58.44
2022-10-12T07:31:14.063Z,56.11
2022-10-12T07:33:41.981Z,57.86
2022-10-12T07:36:14.745Z,60.18
2022-10-12T07:38:47.209Z,65.71
2022-10-12T07:41:15.645Z,63.06
2022-10-12T07:43:43.759Z,59.14
2022-10-12T07:46:12.502Z,55.74
2022-10-12T07:48:47.221Z,56.86
2022-10-12T07:51:17.474Z,59.03
2022-10-12T07:53:45.677Z,64.38
2022-10-12T07:56:17.362Z,63.27
2022-10-12T07:58:50.128Z,58.25
2022-10-12T08:01:19.958Z,55.03
2022-10-12T08:03:50.743Z,56.89
2022-10-12T08:06:24.225Z,58.25
2022-10-12T08:08:52.254Z,60.68
2022-10-12T08:11:20.999Z,64.78
2022-10-12T08:13:48.823Z,60.83
2022-10-12T08:16:19.371Z,54.76
2022-10-12T08:18:47.328Z,55.58
2022-10-12T08:21:17.098Z,57.07
2022-10-12T08:23:45.290Z,58.17
2022-10-12T08:26:14.747Z,58.05
2022-10-12T08:28:43.321Z,59.38
2022-10-12T08:31:13.921Z,63.68
2022-10-12T08:33:41.888Z,63.65
2022-10-12T08:36:11.662Z,54.97
2022-10-12T08:38:39.672Z,51.76
2022-10-12T08:41:23.404Z,53.72
2022-10-12T08:44:06.434Z,53.89
2022-10-12T08:46:34.421Z,54.42
2022-10-12T08:49:29.510Z,55.04
2022-10-12T08:51:59.535Z,54.12
2022-10-12T08:54:31.587Z,54.92
2022-10-12T08:57:00.099Z,55.52
2022-10-12T08:59:29.661Z,56.25
2022-10-12T09:02:14.035Z,56.85
2022-10-12T09:04:56.714Z,55.88
2022-10-12T09:07:50.829Z,56.89
2022-10-12T09:10:46.303Z,56.66
2022-10-12T09:13:39.994Z,56.09
2022-10-12T09:16:24.028Z,56.46
2022-10-12T09:18:55.180Z,55.38
2022-10-12T09:21:26.182Z,55.60
2022-10-12T09:23:56.796Z,56.87
2022-10-12T09:26:36.750Z,55.55
2022-10-12T09:29:27.096Z,55.09
2022-10-12T09:32:16.143Z,53.65
2022-10-12T09:34:46.046Z,53.52
2022-10-12T09:37:23.360Z,53.95
2022-10-12T09:39:51.471Z,52.88
2022-10-12T09:42:19.319Z,52.39
2022-10-12T09:45:12.493Z,52.11
2022-10-12T09:47:40.606Z,52.14
2022-10-12T09:50:08.745Z,51.82
2022-10-12T09:52:36.684Z,51.54
2022-10-12T09:55:17.087Z,51.67
2022-10-12T09:57:54.687Z,50.38
2022-10-12T10:00:32.571Z,50.65
2022-10-12T10:03:02.451Z,51.27
2022-10-12T10:05:30.481Z,51.47
2022-10-12T10:08:20.941Z,49.64
2022-10-12T10:10:50.977Z,50.90
2022-10-12T10:13:20.046Z,50.81
2022-10-12T10:15:51.038Z,50.27
2022-10-12T10:18:25.732Z,50.30
2022-10-12T10:20:56.111Z,50.40
2022-10-12T10:23:29.137Z,50.19
2022-10-12T10:25:58.422Z,49.44
2022-10-12T10:28:30.421Z,48.39
2022-10-12T10:31:03.151Z,47.96
2022-10-12T10:33:33.384Z,47.57
2022-10-12T10:36:13.793Z,48.34
2022-10-12T10:38:56.149Z,47.58
2022-10-12T10:41:28.736Z,47.73
2022-10-12T10:43:56.595Z,47.32
2022-10-12T10:46:28.220Z,47.18
2022-10-12T10:49:06.352Z,46.97
2022-10-12T10:51:49.556Z,47.44
2022-10-12T10:54:23.081Z,47.71
2022-10-12T10:57:02.315Z,47.29
2022-10-12T11:00:19.457Z,46.44
2022-10-12T11:02:51.148Z,47.52
2022-10-12T11:05:28.245Z,47.87
2022-10-12T11:08:06.800Z,47.44
2022-10-12T11:10:45.066Z,46.50
2022-10-12T11:13:20.020Z,46.08
2022-10-12T11:16:07.945Z,46.43
2022-10-12T11:18:42.517Z,45.98
2022-10-12T11:21:22.654Z,46.27
2022-10-12T11:24:05.307Z,45.56
2022-10-12T11:26:57.026Z,45.47
2022-10-12T11:29:24.904Z,45.17
2022-10-12T11:31:59.552Z,44.96
2022-10-12T11:34:32.496Z,45.30
2022-10-12T11:37:19.908Z,45.08
2022-10-12T11:39:54.521Z,44.27
2022-10-12T11:42:32.325Z,45.01
2022-10-12T11:45:06.106Z,45.04
2022-10-12T11:47:39.365Z,45.07
2022-10-12T11:50:25.423Z,44.03
2022-10-12T11:52:55.589Z,42.99
2022-10-12T11:55:29.220Z,43.67
2022-10-12T11:58:07.442Z,43.65
2022-10-12T12:00:53.514Z,42.99
2022-10-12T12:03:31.750Z,42.42
2022-10-12T12:06:29.137Z,42.15
2022-10-12T12:09:01.090Z,42.82
2022-10-12T12:11:31.877Z,41.77
2022-10-12T12:14:21.636Z,41.10
2022-10-12T12:16:49.851Z,42.38
2022-10-12T12:19:36.386Z,41.70
2022-10-12T12:22:28.909Z,42.15
2022-10-12T12:25:10.765Z,42.05
2022-10-12T12:27:42.188Z,42.29
2022-10-12T12:30:19.190Z,42.17
2022-10-12T12:33:38.574Z,40.80
2022-10-12T12:36:09.048Z,42.16
2022-10-12T12:38:45.817Z,42.64
2022-10-12T12:41:21.914Z,43.08
2022-10-12T12:43:58.609Z,42.27
2022-10-12T12:46:52.335Z,41.52
2022-10-12T12:49:38.290Z,41.79
2022-10-12T12:52:16.723Z,42.27
2022-10-12T12:55:00.591Z,42.27
2022-10-12T12:58:16.336Z,42.60
2022-10-12T13:01:02.201Z,42.71
2022-10-12T13:03:41.851Z,42.71
2022-10-12T13:06:29.306Z,42.56
2022-10-12T13:09:06.064Z,41.15
2022-10-12T13:12:11.020Z,41.29
2022-10-12T13:14:51.138Z,41.95
2022-10-12T13:17:34.315Z,42.16
2022-10-12T13:20:15.868Z,40.52
2022-10-12T13:22:46.933Z,39.22
2022-10-12T13:25:25.702Z,37.85
2022-10-12T13:27:55.125Z,39.38
2022-10-12T13:30:51.554Z,38.81
2022-10-12T13:33:32.091Z,39.06
2022-10-12T13:36:08.742Z,39.37
2022-10-12T13:38:39.171Z,39.64
2022-10-12T13:41:14.720Z,38.29
2022-10-12T13:43:51.304Z,38.00
2022-10-12T13:46:41.035Z,38.70
2022-10-12T13:49:41.964Z,38.83
2022-10-12T13:52:12.533Z,38.05
2022-10-12T13:54:47.440Z,37.57
2022-10-12T13:57:40.776Z,38.19
2022-10-12T14:00:19.612Z,38.21
2022-10-12T14:03:02.207Z,38.71
2022-10-12T14:05:32.348Z,39.00
2022-10-12T14:08:11.580Z,38.41
2022-10-12T14:10:41.390Z,38.51
2022-10-12T14:13:15.223Z,38.80
2022-10-12T14:15:43.576Z,37.74
2022-10-12T14:18:40.668Z,37.68
2022-10-12T14:21:11.837Z,36.88
2022-10-12T14:23:45.609Z,37.31
2022-10-12T14:26:43.701Z,36.74
2022-10-12T14:29:33.334Z,38.03
2022-10-12T14:32:04.835Z,37.34
2022-10-12T14:34:36.829Z,37.62
2022-10-12T14:37:13.402Z,37.85
2022-10-12T14:39:42.944Z,38.08
2022-10-12T14:42:31.190Z,37.90
2022-10-12T14:44:59.748Z,38.61
2022-10-12T14:47:32.019Z,38.23
2022-10-12T14:50:01.495Z,38.84
2022-10-12T14:52:47.261Z,38.29
2022-10-12T14:55:16.491Z,37.84
2022-10-12T14:57:44.939Z,37.86
2022-10-12T15:00:18.365Z,37.44
2022-10-12T15:02:47.033Z,35.85
2022-10-12T15:05:17.734Z,34.51
2022-10-12T15:07:47.011Z,32.92
2022-10-12T15:10:16.112Z,32.06
2022-10-12T15:12:44.389Z,31.19
2022-10-12T15:15:29.067Z,30.54
2022-10-12T15:17:58.222Z,30.25
2022-10-12T15:20:27.393Z,29.65
2022-10-12T15:22:55.987Z,29.82
2022-10-12T15:25:46.120Z,29.77
2022-10-12T15:28:14.201Z,30.27
2022-10-12T15:31:04.170Z,30.75
2022-10-12T15:33:30.957Z,31.11
2022-10-12T15:35:58.789Z,31.95
2022-10-12T15:38:26.577Z,32.71
2022-10-12T15:40:58.039Z,33.43
2022-10-12T15:43:26.121Z,34.11
2022-10-12T15:45:56.573Z,35.35
2022-10-12T15:48:24.546Z,36.43
2022-10-12T15:50:52.437Z,37.27
2022-10-12T15:53:24.424Z,38.54
2022-10-12T15:55:53.948Z,39.84
2022-10-12T15:58:22.232Z,42.56
2022-10-12T16:00:50.502Z,43.85
2022-10-12T16:03:25.653Z,45.15
2022-10-12T16:05:54.686Z,46.60
2022-10-12T16:08:23.512Z,48.56
2022-10-12T16:10:51.706Z,49.91
2022-10-12T16:13:19.518Z,51.30
2022-10-12T16:15:47.438Z,52.87
2022-10-12T16:18:15.971Z,54.93
2022-10-12T16:20:47.568Z,56.33
2022-10-12T16:23:22.778Z,58.06
2022-10-12T16:25:51.107Z,59.10
2022-10-12T16:28:19.030Z,59.82
2022-10-12T16:30:46.919Z,61.11
2022-10-12T16:33:14.794Z,61.44
2022-10-12T16:35:42.702Z,63.78
2022-10-12T16:38:11.411Z,64.31
2022-10-12T16:40:40.102Z,61.27
2022-10-12T16:43:08.902Z,58.68
2022-10-12T16:45:36.827Z,56.03
2022-10-12T16:48:05.163Z,57.19
2022-10-12T16:50:33.059Z,59.22
2022-10-12T16:53:00.928Z,60.99
2022-10-12T16:55:28.830Z,63.06
2022-10-12T16:57:56.987Z,62.88
2022-10-12T17:00:25.385Z,58.38
2022-10-12T17:02:57.240Z,56.42
2022-10-12T17:05:25.616Z,58.30
2022-10-12T17:07:53.484Z,60.18
2022-10-12T17:10:21.318Z,62.72
2022-10-12T17:12:49.175Z,65.03
2022-10-12T17:15:17.246Z,57.94
2022-10-12T17:17:45.117Z,56.94
2022-10-12T17:20:12.953Z,59.24
2022-10-12T17:22:40.827Z,61.45
2022-10-12T17:25:09.474Z,64.22
2022-10-12T17:27:37.620Z,63.54
2022-10-12T17:30:05.834Z,58.93
2022-10-12T17:32:37.813Z,56.38
2022-10-12T17:35:06.034Z,58.97
2022-10-12T17:37:34.070Z,61.22
2022-10-12T17:40:02.938Z,63.67
2022-10-12T17:42:30.944Z,65.00
2022-10-12T17:44:58.863Z,60.57
2022-10-12T17:47:26.771Z,57.35
2022-10-12T17:49:54.603Z,58.94
2022-10-12T17:52:22.420Z,61.96
2022-10-12T17:54:50.301Z,65.64
2022-10-12T17:57:18.588Z,62.74
2022-10-12T17:59:46.672Z,58.53
2022-10-12T18:02:14.477Z,57.47
2022-10-12T18:04:42.366Z,59.84
2022-10-12T18:07:11.030Z,63.20
2022-10-12T18:09:39.015Z,64.10
2022-10-12T18:12:06.971Z,58.87
2022-10-12T18:14:34.946Z,57.44
2022-10-12T18:17:02.804Z,57.92
2022-10-12T18:19:30.663Z,60.00
2022-10-12T18:21:58.507Z,64.77
2022-10-12T18:24:26.497Z,63.60
2022-10-12T18:26:54.275Z,62.06
2022-10-12T18:29:22.676Z,57.37
2022-10-12T18:31:50.510Z,56.11
2022-10-12T18:34:18.395Z,57.98
2022-10-12T18:36:46.290Z,60.64
2022-10-12T18:39:14.346Z,65.01
2022-10-12T18:41:42.258Z,65.41
2022-10-12T18:44:11.141Z,60.29
2022-10-12T18:46:39.745Z,55.11
2022-10-12T18:49:10.304Z,54.74
2022-10-12T18:51:41.325Z,56.82
2022-10-12T18:54:13.118Z,58.47
2022-10-12T18:56:41.848Z,59.08
2022-10-12T18:59:11.612Z,64.57
2022-10-12T19:01:39.426Z,66.21
2022-10-12T19:04:08.182Z,61.81
2022-10-12T19:06:39.300Z,56.52
2022-10-12T19:09:07.463Z,54.63
2022-10-12T19:11:36.822Z,55.82
2022-10-12T19:14:13.713Z,59.34
2022-10-12T19:16:42.857Z,63.80
2022-10-12T19:19:19.657Z,65.63
2022-10-12T19:21:50.328Z,61.04
2022-10-12T19:24:19.234Z,55.78
2022-10-12T19:26:48.132Z,54.75
2022-10-12T19:29:16.231Z,56.44
2022-10-12T19:31:47.243Z,58.57
2022-10-12T19:34:18.169Z,59.76
2022-10-12T19:36:46.845Z,64.63
2022-10-12T19:39:24.347Z,66.37
2022-10-12T19:41:53.255Z,61.77
2022-10-12T19:44:21.438Z,56.30
2022-10-12T19:46:51.551Z,54.78
2022-10-12T19:49:19.793Z,57.23
2022-10-12T19:51:47.670Z,58.46
2022-10-12T19:54:16.262Z,59.68
2022-10-12T19:56:44.449Z,64.91
2022-10-12T19:59:12.947Z,66.64
2022-10-12T20:01:40.800Z,61.27
2022-10-12T20:04:11.961Z,56.78
2022-10-12T20:06:40.718Z,55.34
2022-10-12T20:09:09.948Z,57.07
2022-10-12T20:11:38.746Z,58.08
2022-10-12T20:14:07.182Z,59.22
2022-10-12T20:16:37.237Z,64.85
2022-10-12T20:19:07.367Z,65.61
2022-10-12T20:21:36.766Z,61.10
2022-10-12T20:24:07.876Z,55.71
2022-10-12T20:26:35.934Z,54.27
2022-10-12T20:29:04.002Z,55.51
2022-10-12T20:31:31.833Z,57.11
2022-10-12T20:34:00.044Z,58.64
2022-10-12T20:36:30.371Z,62.83
2022-10-12T20:38:59.842Z,66.06
2022-10-12T20:41:28.917Z,61.83
2022-10-12T20:43:58.431Z,56.41
2022-10-12T20:46:27.730Z,55.04
2022-10-12T20:48:58.930Z,56.32
2022-10-12T20:51:34.503Z,58.06
2022-10-12T20:54:05.280Z,59.59
2022-10-12T20:56:33.650Z,64.51
2022-10-12T20:59:01.852Z,66.22
2022-10-12T21:01:29.899Z,62.25
2022-10-12T21:03:58.087Z,56.87
2022-10-12T21:06:26.420Z,54.91
2022-10-12T21:08:56.418Z,56.43
2022-10-12T21:11:25.978Z,58.62
2022-10-12T21:13:54.713Z,59.24
2022-10-12T21:16:22.687Z,63.92
2022-10-12T21:18:54.341Z,66.76
2022-10-12T21:21:23.709Z,61.45
2022-10-12T21:23:57.975Z,56.72
2022-10-12T21:26:29.467Z,55.43
2022-10-12T21:29:00.582Z,58.21
2022-10-12T21:31:32.423Z,58.70
2022-10-12T21:34:03.369Z,63.86
2022-10-12T21:36:33.412Z,65.76
2022-10-12T21:39:01.308Z,61.77
2022-10-12T21:41:30.723Z,56.91
2022-10-12T21:43:59.103Z,55.83
2022-10-12T21:46:29.426Z,57.61
2022-10-12T21:48:57.760Z,59.20
2022-10-12T21:51:27.099Z,60.50
2022-10-12T21:53:55.422Z,65.88
2022-10-12T21:56:33.363Z,67.12
2022-10-12T21:59:02.850Z,61.16
2022-10-12T22:01:36.458Z,56.00
2022-10-12T22:04:07.397Z,55.54
2022-10-12T22:06:35.278Z,56.43
2022-10-12T22:09:11.568Z,58.26
2022-10-12T22:11:39.523Z,59.48
2022-10-12T22:14:13.475Z,65.18
2022-10-12T22:16:43.346Z,65.88
2022-10-12T22:19:15.301Z,61.87
2022-10-12T22:21:43.094Z,56.56
2022-10-12T22:24:10.933Z,55.34
2022-10-12T22:26:38.958Z,56.89
2022-10-12T22:29:08.714Z,58.60
2022-10-12T22:31:41.172Z,59.46
2022-10-12T22:34:11.586Z,65.63
2022-10-12T22:36:39.544Z,65.56
2022-10-12T22:39:07.647Z,60.55
2022-10-12T22:41:35.555Z,56.25
2022-10-12T22:44:03.492Z,55.58
2022-10-12T22:46:31.448Z,57.45
2022-10-12T22:48:59.318Z,59.00
2022-10-12T22:51:32.804Z,59.43
2022-10-12T22:54:01.345Z,64.14
2022-10-12T22:56:29.261Z,66.03
2022-10-12T22:58:59.206Z,60.91
2022-10-12T23:01:27.971Z,56.19
2022-10-12T23:03:56.534Z,55.01
2022-10-12T23:06:24.939Z,56.53
2022-10-12T23:08:52.799Z,57.95
2022-10-12T23:11:24.211Z,59.23
2022-10-12T23:13:53.287Z,63.84
2022-10-12T23:16:26.547Z,64.86
2022-10-12T23:18:59.877Z,60.19
2022-10-12T23:21:29.539Z,54.96
2022-10-12T23:23:59.559Z,54.88
2022-10-12T23:26:28.687Z,56.34
2022-10-12T23:28:57.003Z,58.40
2022-10-12T23:31:28.401Z,59.83
2022-10-12T23:34:04.778Z,64.48
2022-10-12T23:36:34.913Z,65.80
2022-10-12T23:39:04.834Z,61.76
2022-10-12T23:41:33.076Z,55.88
2022-10-12T23:44:01.006Z,54.88
2022-10-12T23:46:29.045Z,56.47
2022-10-12T23:48:58.632Z,58.02
2022-10-12T23:51:26.477Z,59.10
2022-10-12T23:53:54.284Z,64.63
2022-10-12T23:56:22.443Z,65.54
2022-10-12T23:58:50.265Z,60.79
